Huercal de Almeria, Spain
Current Conditions -  °F | °C
As of 10:30 PM on Sunday 23 Nov 2014 (Local Time) from LEAM Reporting Station
Few Clouds Few Clouds  
Wind Chill: 66°   Ceiling: Unl
Heat Index: 66°   Visibility: 6mi
Dew Point: 54°   Wind: 12mph
Humidity: 64%   Direction: 330°NNW
Pressure: 29.88"   Gusts: NA
Location:  36.89°N, 2.44°W
Report Text: LEAM 232130Z 33010KT 300V360 9999 FEW010 19/12 Q1012
Loading
Personal Weather Stations






























Interactive Weather Map New forecast layout! Learn more

10-Day Weather Forecast

Advertisements
Track Severe Weather on mobile